Latest Weather Observations for Bourke

IDN60801

Issued at 9:02 pm EST Saturday 22 July 2017 (issued every 30 minutes, with the page automatically refreshed every 10 minutes)

About weather observations | Map of weather stations | Latest weather observations for NSW | Other Formats
Station Details ID: 048245 Name: BOURKE AIRPORT AWS Lat: -30.04 Lon: 145.95 Height: 107.3 m
Data from the previous 72 hours. | See also: Recent months at Bourke
Date/Time
EST
Temp
°C
App
Temp
°C
Dew
Point
°C
Rel
Hum
%
Delta-T
°C
Wind Press
QNH
hPa
Press
MSL
hPa
Rain since
9am
mm
Dir  Spd
km/h
Gust
km/h
Spd
kts
Gust
kts
22/09:00pm 4.0 -0.1 -6.8 45 3.4 NNW 7 7 4 4 1021.4 1021.5 0.0
22/08:30pm 4.5 0.5 -7.3 42 3.7 NNE 6 7 3 4 1021.4 1021.5 0.0
22/08:00pm 5.5 2.7 -7.0 40 4.0 CALM 0 0 0 0 1021.2 1021.3 0.0
22/07:30pm 6.5 3.7 -7.1 37 4.4 CALM 0 0 0 0 1021.1 1021.2 0.0
22/07:00pm 8.5 5.7 -7.2 32 5.2 CALM 0 0 0 0 1020.7 1020.8 0.0
22/06:30pm 10.4 6.6 -6.0 31 5.8 E 6 6 3 3 1020.6 1020.7 0.0
22/06:00pm 12.6 9.1 -5.9 27 6.7 E 4 7 2 4 1020.5 1020.6 0.0
22/05:30pm 15.7 13.1 -5.3 23 8.0 CALM 0 0 0 0 1020.3 1020.4 0.0
22/05:00pm 17.0 13.6 -5.5 21 8.6 SSE 4 7 2 4 1020.2 1020.3 0.0
22/04:30pm 17.6 13.7 -5.0 21 8.9 SSW 7 11 4 6 1020.3 1020.4 0.0
22/04:00pm 17.7 13.7 -5.5 20 9.0 SSW 7 11 4 6 1020.3 1020.4 0.0
22/03:30pm 18.1 14.3 -5.2 20 9.1 SE 6 11 3 6 1020.4 1020.5 0.0
22/03:00pm 18.2 14.5 -4.5 21 9.0 SSW 6 9 3 5 1020.6 1020.7 0.0
22/02:30pm 17.6 13.4 -4.3 22 8.7 SW 9 15 5 8 1021.0 1021.1 0.0
22/02:00pm 17.2 13.5 -4.1 23 8.4 WNW 6 9 3 5 1021.3 1021.4 0.0
22/01:30pm 16.8 12.9 -4.4 23 8.3 WSW 7 13 4 7 1021.8 1021.9 0.0
22/01:00pm 15.9 12.1 -4.1 25 7.8 SSE 7 13 4 7 1022.5 1022.6 0.0
22/12:30pm 15.7 11.9 -3.7 26 7.7 ESE 7 13 4 7 1023.1 1023.2 0.0
22/12:00pm 16.7 13.3 -2.4 27 7.8 NE 6 9 3 5 1023.8 1023.9 0.0
22/11:30am 15.3 11.7 -3.6 27 7.4 NNE 6 9 3 5 1024.3 1024.4 0.0
22/11:00am 14.7 11.0 -3.1 29 7.0 NNE 7 11 4 6 1024.6 1024.7 0.0
22/10:30am 13.6 9.5 -3.2 31 6.6 ENE 9 15 5 8 1024.8 1024.9 0.0
22/10:00am 12.1 7.5 -3.7 33 6.0 ENE 11 15 6 8 1025.0 1025.1 0.0
22/09:30am 10.7 6.3 -2.7 39 5.1 ENE 11 15 6 8 1025.0 1025.1 0.0
22/09:00am 8.7 4.3 -2.6 45 4.2 ENE 11 15 6 8 1024.8 1024.9 0.0
22/08:30am 6.4 2.9 -1.7 56 3.0 NE 7 9 4 5 1024.7 1024.8 0.0
22/08:00am 3.2 -0.1 -1.5 71 1.7 NE 6 7 3 4 1024.5 1024.6 0.0
22/07:30am -0.9 -4.6 -4.9 74 1.2 SE 6 7 3 4 1024.3 1024.4 0.0
22/07:00am -1.1 -4.9 -4.1 80 0.9 ESE 7 9 4 5 1023.8 1023.9 0.0
22/06:30am -0.3 -4.4 -3.0 82 0.9 SE 9 11 5 6 1023.6 1023.7 0.0
22/06:00am -0.9 -5.1 -3.6 82 0.8 ESE 9 11 5 6 1023.3 1023.4 0.0
22/05:30am -0.5 -4.2 -3.0 83 0.8 SE 7 9 4 5 1023.2 1023.3 0.0
22/05:00am 0.0 -3.7 -2.7 82 0.9 SE 7 9 4 5 1023.1 1023.2 0.0
22/04:30am 0.0 -3.7 -2.5 83 0.9 SSE 7 11 4 6 1023.1 1023.2 0.0
22/04:00am 0.0 -2.5 -3.9 75 1.3 CALM 0 7 0 4 1023.2 1023.3 0.0
22/03:30am -0.3 -2.9 -4.9 71 1.5 CALM 0 0 0 0 1023.2 1023.3 0.0
22/03:00am -0.3 -3.0 -5.9 66 1.7 CALM 0 0 0 0 1023.1 1023.2 0.0
22/02:30am 0.6 -2.0 -4.8 67 1.8 CALM 0 0 0 0 1023.1 1023.2 0.0
22/02:00am 0.9 -1.7 -4.5 67 1.8 CALM 0 0 0 0 1023.3 1023.4 0.0
22/01:30am 1.6 -0.9 -4.1 66 2.0 CALM 0 0 0 0 1023.5 1023.6 0.0
22/01:00am 3.0 0.9 -1.0 75 1.4 CALM 0 0 0 0 1023.2 1023.3 0.0
22/12:30am 2.7 -1.2 -1.8 72 1.6 E 9 9 5 5 1023.0 1023.1 0.0
22/12:00am 2.3 -1.5 -3.6 65 2.0 ESE 7 7 4 4 1023.7 1023.8 0.0
 
Date/Time
EST
Temp
°C
App
Temp
°C
Dew
Point
°C
Rel
Hum
%
Delta-T
°C
Wind Press
QNH
hPa
Press
MSL
hPa
Rain since
9am
mm
Dir  Spd
km/h
Gust
km/h
Spd
kts
Gust
kts
21/11:30pm 3.2 -0.3 -2.7 65 2.1 ESE 6 7 3 4 1023.8 1023.9 0.0
21/11:00pm 3.9 -0.1 -2.1 65 2.1 ESE 9 9 5 5 1023.9 1024.0 0.0
21/10:30pm 4.1 0.5 -2.3 63 2.3 SE 7 9 4 5 1023.8 1023.9 0.0
21/10:00pm 5.1 1.7 -2.0 60 2.6 SSE 6 7 3 4 1023.7 1023.8 0.0
21/09:30pm 5.7 2.1 -2.1 57 2.9 SSE 7 11 4 6 1023.4 1023.5 0.0
21/09:00pm 5.6 3.1 -3.7 51 3.2 CALM 0 0 0 0 1023.1 1023.2 0.0
21/08:30pm 6.0 3.6 -3.4 51 3.3 CALM 0 0 0 0 1023.1 1023.2 0.0
21/08:00pm 6.7 3.3 -1.7 55 3.1 ESE 6 7 3 4 1022.7 1022.8 0.0
21/07:30pm 7.1 4.7 -3.4 47 3.8 CALM 0 0 0 0 1022.5 1022.6 0.0
21/07:00pm 8.3 5.8 -3.8 42 4.4 CALM 0 0 0 0 1022.6 1022.7 0.0
21/06:30pm 9.9 7.5 -3.0 40 4.9 CALM 0 0 0 0 1022.3 1022.4 0.0
21/06:00pm 12.4 9.0 -2.2 36 5.7 S 6 7 3 4 1022.0 1022.1 0.0
21/05:30pm 14.4 10.8 -2.1 32 6.7 S 7 9 4 5 1021.6 1021.7 0.0
21/05:00pm 15.8 11.9 -1.3 31 7.1 S 9 13 5 7 1021.3 1021.4 0.0
21/04:30pm 16.1 12.3 -1.0 31 7.2 SSE 9 17 5 9 1021.2 1021.3 0.0
21/04:00pm 16.6 12.0 -1.0 30 7.4 SSW 13 17 7 9 1021.2 1021.3 0.0
21/03:30pm 16.5 12.7 -1.1 30 7.4 S 9 15 5 8 1021.1 1021.2 0.0
21/03:00pm 16.6 12.4 -0.6 31 7.3 SSW 11 20 6 11 1021.3 1021.4 0.0
21/02:30pm 16.7 13.0 -0.1 32 7.2 SSW 9 19 5 10 1021.2 1021.3 0.0
21/02:00pm 16.1 12.3 -0.6 32 7.0 SSW 9 13 5 7 1021.5 1021.6 0.0
21/01:30pm 15.6 11.1 -0.6 33 6.8 SSE 13 19 7 10 1021.9 1022.0 0.0
21/01:00pm 15.3 11.2 -0.4 34 6.6 SSE 11 17 6 9 1022.4 1022.5 0.0
21/12:30pm 14.5 11.2 0.4 38 6.0 SSW 7 15 4 8 1022.9 1023.0 0.0
21/12:00pm 14.6 11.6 0.8 39 5.9 S 6 13 3 7 1023.5 1023.6 0.0
21/11:30am 14.0 11.1 1.3 42 5.5 WSW 6 11 3 6 1023.8 1023.9 0.0
21/11:00am 13.5 10.0 1.2 43 5.3 SE 9 15 5 8 1024.4 1024.5 0.0
21/10:30am 12.5 8.6 1.2 46 4.8 SE 11 17 6 9 1024.5 1024.6 0.0
21/10:00am 11.3 7.8 1.0 49 4.3 SSE 9 13 5 7 1024.3 1024.4 0.0
21/09:30am 9.9 6.8 0.3 51 3.9 SSE 6 11 3 6 1024.1 1024.2 0.0
21/09:00am 8.5 5.2 0.0 55 3.4 SSE 7 9 4 5 1023.9 1024.0 0.0
21/08:30am 6.6 2.8 -0.6 60 2.8 SSE 9 11 5 6 1023.5 1023.6 0.0
21/08:00am 3.1 0.5 -1.4 72 1.6 SSE 2 7 1 4 1023.1 1023.2 0.0
21/07:30am -0.3 -3.9 -4.0 76 1.2 SSE 6 7 3 4 1022.7 1022.8 0.0
21/07:00am -0.4 -3.7 -4.3 75 1.2 S 4 7 2 4 1022.6 1022.7 0.0
21/06:30am 0.1 -3.6 -4.5 71 1.5 S 6 7 3 4 1022.5 1022.6 0.0
21/06:00am 1.6 -2.0 -3.5 69 1.8 S 6 7 3 4 1022.3 1022.4 0.0
21/05:30am 3.8 -0.2 -2.0 66 2.1 S 9 11 5 6 1021.8 1021.9 0.0
21/05:00am 4.3 0.1 -1.1 68 2.0 S 11 15 6 8 1021.6 1021.7 0.0
21/04:30am 2.6 -1.4 -2.1 71 1.7 S 9 11 5 6 1021.6 1021.7 0.0
21/04:00am 0.7 -3.1 -3.4 74 1.4 SSE 7 9 4 5 1021.2 1021.3 0.0
21/03:30am 0.7 -3.0 -3.2 75 1.4 S 7 9 4 5 1021.0 1021.1 0.0
21/03:00am 1.0 -2.7 -2.7 76 1.3 SSW 7 9 4 5 1021.0 1021.1 0.0
21/02:30am 1.1 -1.3 -3.4 72 1.6 CALM 0 0 0 0 1020.8 1020.9 0.0
21/02:00am 1.2 -2.4 -4.0 68 1.8 S 6 7 3 4 1020.9 1021.0 0.0
21/01:30am 2.9 -0.8 -2.6 67 1.9 S 7 9 4 5 1021.1 1021.2 0.0
21/01:00am 4.2 0.6 -2.0 64 2.2 S 7 9 4 5 1020.9 1021.0 0.0
21/12:30am 5.8 2.0 -0.9 62 2.5 SSW 9 11 5 6 1021.4 1021.5 0.0
21/12:00am 6.5 2.4 0.0 63 2.5 SSW 11 13 6 7 1021.6 1021.7 0.0
 
Date/Time
EST
Temp
°C
App
Temp
°C
Dew
Point
°C
Rel
Hum
%
Delta-T
°C
Wind Press
QNH
hPa
Press
MSL
hPa
Rain since
9am
mm
Dir  Spd
km/h
Gust
km/h
Spd
kts
Gust
kts
20/11:30pm 4.9 1.0 -1.3 64 2.3 SSW 9 11 5 6 1021.6 1021.7 0.0
20/11:00pm 6.1 2.2 -1.3 59 2.8 SW 9 9 5 5 1021.6 1021.7 0.0
20/10:30pm 7.3 3.5 -0.9 56 3.1 WSW 9 11 5 6 1021.4 1021.5 0.0
20/10:00pm 8.7 4.6 -0.1 54 3.5 WSW 11 15 6 8 1021.3 1021.4 0.0
20/09:30pm 8.4 4.7 0.1 56 3.3 WSW 9 11 5 6 1021.0 1021.1 0.0
20/09:00pm 8.9 5.2 -0.1 53 3.6 WSW 9 11 5 6 1020.9 1021.0 0.0
20/08:30pm 10.2 6.5 0.0 49 4.1 WSW 9 13 5 7 1020.9 1021.0 0.0
20/08:00pm 9.9 6.2 0.0 50 4.0 WSW 9 11 5 6 1020.9 1021.0 0.0
20/07:30pm 10.0 6.7 -0.2 49 4.1 WSW 7 9 4 5 1020.7 1020.8 0.0
20/07:00pm 11.2 7.9 0.3 47 4.5 W 7 9 4 5 1020.5 1020.6 0.0
20/06:30pm 12.3 9.0 0.4 44 5.0 WSW 7 11 4 6 1020.4 1020.5 0.0
20/06:00pm 13.1 9.4 0.2 41 5.4 WSW 9 9 5 5 1020.1 1020.2 0.0
20/05:30pm 14.7 11.0 0.2 37 6.2 WSW 9 13 5 7 1019.8 1019.9 0.0
20/05:00pm 15.8 12.1 0.0 34 6.7 SW 9 15 5 8 1019.6 1019.6 0.0
20/04:30pm 16.3 13.0 0.4 34 6.9 SW 7 17 4 9 1019.6 1019.6 0.0
20/04:00pm 16.6 12.3 0.7 34 6.9 SW 13 17 7 9 1019.7 1019.7 0.0
20/03:30pm 16.2 11.8 0.3 34 6.9 SSW 13 22 7 12 1019.7 1019.7 0.0
20/03:00pm 15.8 11.3 0.0 34 6.7 SSW 13 22 7 12 1020.0 1020.1 0.0
20/02:30pm 15.7 11.1 1.4 38 6.3 S 15 22 8 12 1020.2 1020.3 0.0
20/02:00pm 15.4 11.2 1.5 39 6.1 S 13 20 7 11 1020.5 1020.6 0.0
20/01:30pm 15.1 10.6 2.3 42 5.7 SSW 15 22 8 12 1020.8 1020.9 0.0
20/01:00pm 14.8 11.2 2.7 44 5.4 SW 11 20 6 11 1021.5 1021.6 0.0
20/12:30pm 14.1 10.1 2.7 46 5.1 SSW 13 20 7 11 1022.1 1022.2 0.0
20/12:00pm 13.7 9.4 3.2 49 4.7 WSW 15 22 8 12 1022.8 1022.9 0.0
20/11:30am 13.5 9.1 2.7 48 4.8 SW 15 26 8 14 1023.5 1023.6 0.0
20/11:00am 12.8 8.6 4.0 55 4.0 SSW 15 20 8 11 1023.9 1024.0 0.0
20/10:30am 12.2 8.9 4.4 59 3.6 SSW 11 20 6 11 1024.2 1024.3 0.0
20/10:00am 11.6 8.1 5.3 65 2.9 S 13 19 7 10 1024.4 1024.5 0.0
20/09:30am 10.8 6.8 5.1 68 2.6 SSW 15 20 8 11 1024.1 1024.2 0.0
20/09:00am 9.9 6.3 5.1 72 2.2 SW 13 19 7 10 1023.8 1023.9 0.0
20/08:30am 8.2 5.4 5.0 80 1.4 SW 9 13 5 7 1023.4 1023.5 0.0
20/08:00am 6.5 3.6 4.7 88 0.8 WSW 9 11 5 6 1023.0 1023.1 0.0
20/07:30am 4.6 1.5 3.6 93 0.4 SW 9 11 5 6 1022.3 1022.4 0.0
20/07:00am 3.7 0.7 1.9 88 0.7 SW 7 9 4 5 1022.0 1022.1 0.0
20/06:30am 4.7 1.9 2.9 88 0.7 SW 7 9 4 5 1021.9 1022.0 0.0
20/06:00am 5.6 2.5 3.6 87 0.8 SW 9 9 5 5 1021.6 1021.7 0.0
20/05:30am 6.3 3.3 4.0 85 1.0 SW 9 11 5 6 1021.4 1021.5 0.0
20/05:00am 6.4 2.9 3.6 82 1.2 WSW 11 13 6 7 1021.0 1021.1 0.0
20/04:30am 7.6 4.7 4.4 80 1.4 WSW 9 13 5 7 1021.1 1021.2 0.0
20/04:00am 8.5 5.6 4.7 77 1.7 WSW 9 13 5 7 1020.8 1020.9 0.0
20/03:30am 9.2 6.0 5.2 76 1.8 WSW 11 15 6 8 1020.6 1020.7 0.0
20/03:00am 8.6 5.8 5.2 79 1.5 WSW 9 13 5 7 1020.6 1020.7 0.0
20/02:30am 8.2 5.3 4.8 79 1.5 W 9 11 5 6 1020.6 1020.7 0.0
20/02:00am 8.3 5.6 3.9 74 1.9 WSW 7 9 4 5 1020.4 1020.5 0.0
20/01:30am 9.7 7.2 4.7 71 2.2 WSW 7 11 4 6 1020.6 1020.7 0.0
20/01:00am 10.9 7.7 5.2 68 2.6 WSW 11 15 6 8 1020.8 1020.9 0.0
20/12:30am 11.1 8.3 5.2 67 2.7 WSW 9 11 5 6 1020.8 1020.9 0.0
20/12:00am 11.8 9.0 5.0 63 3.1 SW 9 13 5 7 1021.0 1021.1 0.0
 
Date/Time
EST
Temp
°C
App
Temp
°C
Dew
Point
°C
Rel
Hum
%
Delta-T
°C
Wind Press
QNH
hPa
Press
MSL
hPa
Rain since
9am
mm
Dir  Spd
km/h
Gust
km/h
Spd
kts
Gust
kts
19/11:30pm 12.8 9.3 5.5 61 3.4 WSW 13 17 7 9 1021.0 1021.1 0.0
19/11:00pm 12.8 9.6 5.2 60 3.5 WSW 11 15 6 8 1021.2 1021.3 0.0
19/10:30pm 13.0 9.8 4.9 58 3.8 WSW 11 15 6 8 1021.1 1021.2 0.0
19/10:00pm 13.2 9.2 5.1 58 3.8 SW 15 20 8 11 1021.3 1021.4 0.0
19/09:30pm 13.0 9.0 4.7 57 3.8 WSW 15 20 8 11 1021.4 1021.5 0.0

Other Formats:

Comma delimited format used in spreadsheet applications
http://www.bom.gov.au/fwo/IDN60801/IDN60801.94703.axf

JavaScript Object Notation format (JSON) in row-major order
http://www.bom.gov.au/fwo/IDN60801/IDN60801.94703.json